Aviation Digital Data Service (ADDS)

Output produced by METARs form (0904 UTC 19 April 2019)
found at http://www.aviationweather.gov/metar/data/
 
Forecast for: LIPR (RIMINI (CIV/IT-A, IT)
Text: TAF LIPR 190800Z 1909/1918 30008KT CAVOK
Forecast period: 0900 to 1800 UTC 19 April 2019
Forecast type: FROM: standard forecast or significant change
Winds: from the WNW (300 degrees) at 9 MPH (8 knots; 4.1 m/s)
Visibility: 6 or more miles 10+ km)
Ceiling: unknown
Clouds: missing
Weather: NSW  (no significant weather)
Text: BECMG 1909/1911 02010KT
Forecast period: 0900 to 1800 UTC 19 April 2019
Forecast type: BECOMING: Conditions expected to become as follows by 1100 UTC 19 April 2019
Winds: from the NNE (20 degrees) at 12 MPH (10 knots; 5.1 m/s)
Visibility: 6 or more miles 10+ km)
Ceiling: unknown
Clouds: missing
Weather: NSW  (no significant weather)